sensor_id;sensor_type;location;lat;lon;timestamp;temperature;humidity
1347;DHT22;667;48.796;9.480;2023-07-13T00:01:13;23.10;64.50
1347;DHT22;667;48.796;9.480;2023-07-13T00:03:38;23.10;64.20
1347;DHT22;667;48.796;9.480;2023-07-13T00:06:07;23.10;64.40
1347;DHT22;667;48.796;9.480;2023-07-13T00:08:33;23.10;64.70
1347;DHT22;667;48.796;9.480;2023-07-13T00:11:01;23.10;64.70
1347;DHT22;667;48.796;9.480;2023-07-13T00:13:27;23.10;64.30
1347;DHT22;667;48.796;9.480;2023-07-13T00:15:52;23.00;64.50
1347;DHT22;667;48.796;9.480;2023-07-13T00:18:19;23.00;64.40
1347;DHT22;667;48.796;9.480;2023-07-13T00:20:45;23.00;64.60
1347;DHT22;667;48.796;9.480;2023-07-13T00:23:13;23.00;64.40
1347;DHT22;667;48.796;9.480;2023-07-13T00:25:38;23.00;64.00
1347;DHT22;667;48.796;9.480;2023-07-13T00:28:04;22.90;63.60
1347;DHT22;667;48.796;9.480;2023-07-13T00:30:29;22.90;63.50
1347;DHT22;667;48.796;9.480;2023-07-13T00:32:55;22.80;62.80
1347;DHT22;667;48.796;9.480;2023-07-13T00:35:21;22.80;63.40
1347;DHT22;667;48.796;9.480;2023-07-13T00:37:46;22.80;63.60
1347;DHT22;667;48.796;9.480;2023-07-13T00:40:13;22.80;63.60
1347;DHT22;667;48.796;9.480;2023-07-13T00:42:40;22.80;63.70
1347;DHT22;667;48.796;9.480;2023-07-13T00:47:52;22.80;63.70
1347;DHT22;667;48.796;9.480;2023-07-13T00:50:19;22.80;63.70
1347;DHT22;667;48.796;9.480;2023-07-13T00:52:48;22.80;64.00
1347;DHT22;667;48.796;9.480;2023-07-13T00:55:15;22.80;63.30
1347;DHT22;667;48.796;9.480;2023-07-13T00:57:43;22.70;62.90
1347;DHT22;667;48.796;9.480;2023-07-13T01:00:10;22.80;63.00
1347;DHT22;667;48.796;9.480;2023-07-13T01:02:38;22.80;63.00
1347;DHT22;667;48.796;9.480;2023-07-13T01:05:13;22.70;62.30
1347;DHT22;667;48.796;9.480;2023-07-13T01:07:40;22.70;62.50
1347;DHT22;667;48.796;9.480;2023-07-13T01:10:06;22.70;62.00
1347;DHT22;667;48.796;9.480;2023-07-13T01:12:32;22.70;61.60
1347;DHT22;667;48.796;9.480;2023-07-13T01:14:58;22.70;60.70
1347;DHT22;667;48.796;9.480;2023-07-13T01:17:27;22.70;59.90
1347;DHT22;667;48.796;9.480;2023-07-13T01:19:53;22.70;59.90
1347;DHT22;667;48.796;9.480;2023-07-13T01:22:19;22.70;60.30
1347;DHT22;667;48.796;9.480;2023-07-13T01:24:50;22.70;60.70
1347;DHT22;667;48.796;9.480;2023-07-13T01:27:20;22.70;61.20
1347;DHT22;667;48.796;9.480;2023-07-13T01:29:46;22.70;61.40
1347;DHT22;667;48.796;9.480;2023-07-13T01:32:15;22.60;61.40
1347;DHT22;667;48.796;9.480;2023-07-13T01:34:41;22.60;61.60
1347;DHT22;667;48.796;9.480;2023-07-13T01:37:08;22.60;61.50
1347;DHT22;667;48.796;9.480;2023-07-13T01:39:34;22.50;61.30
1347;DHT22;667;48.796;9.480;2023-07-13T01:42:00;22.50;61.40
1347;DHT22;667;48.796;9.480;2023-07-13T01:44:26;22.40;61.40
1347;DHT22;667;48.796;9.480;2023-07-13T01:46:51;22.40;61.20
1347;DHT22;667;48.796;9.480;2023-07-13T01:49:17;22.30;60.60
1347;DHT22;667;48.796;9.480;2023-07-13T01:51:42;22.30;60.70
1347;DHT22;667;48.796;9.480;2023-07-13T01:54:08;22.20;60.50
1347;DHT22;667;48.796;9.480;2023-07-13T01:56:33;22.20;60.60
1347;DHT22;667;48.796;9.480;2023-07-13T01:58:59;22.10;60.30
1347;DHT22;667;48.796;9.480;2023-07-13T02:01:25;22.10;60.60
1347;DHT22;667;48.796;9.480;2023-07-13T02:03:50;22.00;60.70
1347;DHT22;667;48.796;9.480;2023-07-13T02:06:16;22.00;60.70
1347;DHT22;667;48.796;9.480;2023-07-13T02:08:42;21.90;60.80
1347;DHT22;667;48.796;9.480;2023-07-13T02:11:08;21.90;60.50
1347;DHT22;667;48.796;9.480;2023-07-13T02:13:34;21.90;61.10
1347;DHT22;667;48.796;9.480;2023-07-13T02:16:00;21.80;61.20
1347;DHT22;667;48.796;9.480;2023-07-13T02:18:25;21.80;61.10
1347;DHT22;667;48.796;9.480;2023-07-13T02:20:51;21.70;60.70
1347;DHT22;667;48.796;9.480;2023-07-13T02:23:17;21.70;59.90
1347;DHT22;667;48.796;9.480;2023-07-13T02:25:42;21.70;59.90
1347;DHT22;667;48.796;9.480;2023-07-13T02:28:08;21.60;59.90
1347;DHT22;667;48.796;9.480;2023-07-13T02:30:34;21.60;60.40
1347;DHT22;667;48.796;9.480;2023-07-13T02:33:00;21.60;61.10
1347;DHT22;667;48.796;9.480;2023-07-13T02:35:26;21.50;61.10
1347;DHT22;667;48.796;9.480;2023-07-13T02:37:52;21.50;61.20
1347;DHT22;667;48.796;9.480;2023-07-13T02:40:17;21.50;61.50
1347;DHT22;667;48.796;9.480;2023-07-13T02:42:43;21.50;61.40
1347;DHT22;667;48.796;9.480;2023-07-13T02:45:09;21.50;61.40
1347;DHT22;667;48.796;9.480;2023-07-13T02:47:35;21.50;61.30
1347;DHT22;667;48.796;9.480;2023-07-13T02:50:02;21.50;61.20
1347;DHT22;667;48.796;9.480;2023-07-13T02:52:28;21.50;61.10
1347;DHT22;667;48.796;9.480;2023-07-13T02:54:53;21.50;61.50
1347;DHT22;667;48.796;9.480;2023-07-13T02:57:19;21.50;61.50
1347;DHT22;667;48.796;9.480;2023-07-13T02:59:44;21.40;61.40
1347;DHT22;667;48.796;9.480;2023-07-13T03:02:10;21.40;61.70
1347;DHT22;667;48.796;9.480;2023-07-13T03:04:36;21.40;62.10
1347;DHT22;667;48.796;9.480;2023-07-13T03:07:03;21.40;62.10
1347;DHT22;667;48.796;9.480;2023-07-13T03:09:30;21.30;62.00
1347;DHT22;667;48.796;9.480;2023-07-13T03:11:55;21.20;62.50
1347;DHT22;667;48.796;9.480;2023-07-13T03:14:24;21.20;62.80
1347;DHT22;667;48.796;9.480;2023-07-13T03:16:50;21.10;63.10
1347;DHT22;667;48.796;9.480;2023-07-13T03:19:17;21.00;63.40
1347;DHT22;667;48.796;9.480;2023-07-13T03:21:43;21.00;63.80
1347;DHT22;667;48.796;9.480;2023-07-13T03:26:35;20.80;63.40
1347;DHT22;667;48.796;9.480;2023-07-13T03:29:00;20.80;64.30
1347;DHT22;667;48.796;9.480;2023-07-13T03:31:29;20.70;64.40
1347;DHT22;667;48.796;9.480;2023-07-13T03:36:31;20.60;64.60
1347;DHT22;667;48.796;9.480;2023-07-13T03:39:00;20.50;65.00
1347;DHT22;667;48.796;9.480;2023-07-13T03:41:26;20.50;65.20
1347;DHT22;667;48.796;9.480;2023-07-13T03:43:52;20.40;65.20
1347;DHT22;667;48.796;9.480;2023-07-13T03:46:18;20.40;65.40
1347;DHT22;667;48.796;9.480;2023-07-13T03:48:45;20.40;65.30
1347;DHT22;667;48.796;9.480;2023-07-13T03:51:12;20.30;65.40
1347;DHT22;667;48.796;9.480;2023-07-13T03:53:41;20.30;65.90
1347;DHT22;667;48.796;9.480;2023-07-13T03:56:07;20.30;65.90
1347;DHT22;667;48.796;9.480;2023-07-13T03:58:40;20.30;66.30
1347;DHT22;667;48.796;9.480;2023-07-13T04:01:07;20.30;66.20
1347;DHT22;667;48.796;9.480;2023-07-13T04:03:34;20.30;65.80
1347;DHT22;667;48.796;9.480;2023-07-13T04:06:00;20.30;65.90
1347;DHT22;667;48.796;9.480;2023-07-13T04:08:28;20.30;66.10
1347;DHT22;667;48.796;9.480;2023-07-13T04:10:54;20.40;66.30
1347;DHT22;667;48.796;9.480;2023-07-13T04:13:19;20.40;66.10
1347;DHT22;667;48.796;9.480;2023-07-13T04:15:45;20.40;65.80
1347;DHT22;667;48.796;9.480;2023-07-13T04:18:11;20.40;65.70
1347;DHT22;667;48.796;9.480;2023-07-13T04:20:36;20.50;65.70
1347;DHT22;667;48.796;9.480;2023-07-13T04:23:02;20.50;65.70
1347;DHT22;667;48.796;9.480;2023-07-13T04:25:27;20.50;65.80
1347;DHT22;667;48.796;9.480;2023-07-13T04:27:53;20.60;66.10
1347;DHT22;667;48.796;9.480;2023-07-13T04:30:20;20.60;66.30
1347;DHT22;667;48.796;9.480;2023-07-13T04:32:45;20.60;66.80
1347;DHT22;667;48.796;9.480;2023-07-13T04:35:11;20.60;66.20
1347;DHT22;667;48.796;9.480;2023-07-13T04:37:37;20.60;66.20
1347;DHT22;667;48.796;9.480;2023-07-13T04:40:03;20.70;66.00
1347;DHT22;667;48.796;9.480;2023-07-13T04:42:29;20.70;66.00
1347;DHT22;667;48.796;9.480;2023-07-13T04:44:55;20.60;66.30
1347;DHT22;667;48.796;9.480;2023-07-13T04:47:20;20.60;66.70
1347;DHT22;667;48.796;9.480;2023-07-13T04:49:46;20.60;66.70
1347;DHT22;667;48.796;9.480;2023-07-13T04:52:12;20.60;66.90
1347;DHT22;667;48.796;9.480;2023-07-13T04:54:38;20.70;67.30
1347;DHT22;667;48.796;9.480;2023-07-13T04:57:04;20.70;66.80
1347;DHT22;667;48.796;9.480;2023-07-13T04:59:32;20.70;67.00
1347;DHT22;667;48.796;9.480;2023-07-13T05:01:58;20.70;66.50
1347;DHT22;667;48.796;9.480;2023-07-13T05:04:24;20.80;66.60
1347;DHT22;667;48.796;9.480;2023-07-13T05:06:49;20.70;66.70
1347;DHT22;667;48.796;9.480;2023-07-13T05:09:15;20.80;66.00
1347;DHT22;667;48.796;9.480;2023-07-13T05:11:41;20.80;65.70
1347;DHT22;667;48.796;9.480;2023-07-13T05:14:06;20.90;66.50
1347;DHT22;667;48.796;9.480;2023-07-13T05:16:32;21.20;67.70
1347;DHT22;667;48.796;9.480;2023-07-13T05:18:58;20.90;67.60
1347;DHT22;667;48.796;9.480;2023-07-13T05:21:23;20.80;67.60
1347;DHT22;667;48.796;9.480;2023-07-13T05:23:50;20.80;67.90
1347;DHT22;667;48.796;9.480;2023-07-13T05:26:15;20.80;67.60
1347;DHT22;667;48.796;9.480;2023-07-13T05:28:41;20.80;67.80
1347;DHT22;667;48.796;9.480;2023-07-13T05:31:09;20.80;67.50
1347;DHT22;667;48.796;9.480;2023-07-13T05:33:34;20.80;67.30
1347;DHT22;667;48.796;9.480;2023-07-13T05:36:00;20.80;67.30
1347;DHT22;667;48.796;9.480;2023-07-13T05:38:27;20.80;67.30
1347;DHT22;667;48.796;9.480;2023-07-13T05:40:54;20.80;67.30
1347;DHT22;667;48.796;9.480;2023-07-13T05:43:21;20.80;67.00
1347;DHT22;667;48.796;9.480;2023-07-13T05:45:47;20.80;66.80
1347;DHT22;667;48.796;9.480;2023-07-13T05:48:12;20.90;66.60
1347;DHT22;667;48.796;9.480;2023-07-13T05:50:38;20.90;66.20
1347;DHT22;667;48.796;9.480;2023-07-13T05:53:04;20.90;65.20
1347;DHT22;667;48.796;9.480;2023-07-13T05:55:30;21.00;65.20
1347;DHT22;667;48.796;9.480;2023-07-13T05:57:56;21.00;65.20
1347;DHT22;667;48.796;9.480;2023-07-13T10:16:39;27.20;41.80
1347;DHT22;667;48.796;9.480;2023-07-13T10:19:22;27.30;41.20
1347;DHT22;667;48.796;9.480;2023-07-13T10:21:53;27.30;40.80
1347;DHT22;667;48.796;9.480;2023-07-13T10:24:25;27.30;40.20
1347;DHT22;667;48.796;9.480;2023-07-13T10:29:45;27.40;39.80
1347;DHT22;667;48.796;9.480;2023-07-13T10:32:12;27.40;39.60
1347;DHT22;667;48.796;9.480;2023-07-13T10:34:39;27.40;40.00
1347;DHT22;667;48.796;9.480;2023-07-13T10:37:07;27.40;40.00
1347;DHT22;667;48.796;9.480;2023-07-13T10:39:41;27.50;39.70
1347;DHT22;667;48.796;9.480;2023-07-13T10:42:10;27.50;40.10
1347;DHT22;667;48.796;9.480;2023-07-13T10:44:37;27.50;40.60
1347;DHT22;667;48.796;9.480;2023-07-13T10:47:08;27.60;40.00
1347;DHT22;667;48.796;9.480;2023-07-13T10:49:37;27.50;40.20
1347;DHT22;667;48.796;9.480;2023-07-13T10:52:04;27.50;40.00
1347;DHT22;667;48.796;9.480;2023-07-13T10:57:26;27.50;40.20
1347;DHT22;667;48.796;9.480;2023-07-13T11:00:15;27.50;39.90
1347;DHT22;667;48.796;9.480;2023-07-13T11:02:41;27.50;40.20
1347;DHT22;667;48.796;9.480;2023-07-13T11:05:28;27.50;40.30
1347;DHT22;667;48.796;9.480;2023-07-13T11:08:03;27.50;40.20
1347;DHT22;667;48.796;9.480;2023-07-13T11:10:58;27.50;40.50
1347;DHT22;667;48.796;9.480;2023-07-13T11:19:18;27.60;40.90
1347;DHT22;667;48.796;9.480;2023-07-13T11:32:50;27.70;40.20
1347;DHT22;667;48.796;9.480;2023-07-13T11:35:22;27.80;40.20
1347;DHT22;667;48.796;9.480;2023-07-13T11:37:49;27.90;40.20
1347;DHT22;667;48.796;9.480;2023-07-13T11:40:15;28.00;40.20
1347;DHT22;667;48.796;9.480;2023-07-13T11:42:41;28.00;39.60
1347;DHT22;667;48.796;9.480;2023-07-13T11:45:22;28.10;39.90
1347;DHT22;667;48.796;9.480;2023-07-13T11:47:50;28.20;39.80
1347;DHT22;667;48.796;9.480;2023-07-13T11:50:21;28.20;38.50
1347;DHT22;667;48.796;9.480;2023-07-13T11:52:46;28.30;38.60
1347;DHT22;667;48.796;9.480;2023-07-13T11:55:15;28.30;38.60
1347;DHT22;667;48.796;9.480;2023-07-13T11:57:45;28.40;39.20
1347;DHT22;667;48.796;9.480;2023-07-13T12:00:17;28.50;38.90
1347;DHT22;667;48.796;9.480;2023-07-13T12:02:45;28.50;38.90
1347;DHT22;667;48.796;9.480;2023-07-13T12:05:15;28.50;38.90
1347;DHT22;667;48.796;9.480;2023-07-13T12:07:43;28.50;39.10
1347;DHT22;667;48.796;9.480;2023-07-13T12:12:36;28.50;37.80
1347;DHT22;667;48.796;9.480;2023-07-13T12:15:06;28.50;37.90
1347;DHT22;667;48.796;9.480;2023-07-13T12:17:34;28.50;38.50
1347;DHT22;667;48.796;9.480;2023-07-13T12:20:19;28.60;38.10
1347;DHT22;667;48.796;9.480;2023-07-13T12:22:48;28.60;38.40
1347;DHT22;667;48.796;9.480;2023-07-13T12:25:15;28.60;39.40
1347;DHT22;667;48.796;9.480;2023-07-13T12:27:41;28.60;38.80
1347;DHT22;667;48.796;9.480;2023-07-13T12:30:31;28.60;39.30
1347;DHT22;667;48.796;9.480;2023-07-13T12:33:07;28.70;39.20
1347;DHT22;667;48.796;9.480;2023-07-13T12:35:40;28.70;38.70
1347;DHT22;667;48.796;9.480;2023-07-13T12:38:10;28.80;38.10
1347;DHT22;667;48.796;9.480;2023-07-13T12:40:36;28.80;38.40
1347;DHT22;667;48.796;9.480;2023-07-13T12:43:03;28.90;37.90
1347;DHT22;667;48.796;9.480;2023-07-13T12:45:32;28.90;38.20
1347;DHT22;667;48.796;9.480;2023-07-13T12:48:04;29.00;37.80
1347;DHT22;667;48.796;9.480;2023-07-13T12:50:41;29.00;37.50
1347;DHT22;667;48.796;9.480;2023-07-13T12:53:20;29.00;38.30
1347;DHT22;667;48.796;9.480;2023-07-13T12:55:54;29.00;38.40
1347;DHT22;667;48.796;9.480;2023-07-13T12:58:47;29.00;38.10
1347;DHT22;667;48.796;9.480;2023-07-13T13:01:20;29.00;38.20
1347;DHT22;667;48.796;9.480;2023-07-13T13:03:49;29.00;38.00
1347;DHT22;667;48.796;9.480;2023-07-13T13:08:47;29.00;37.20
1347;DHT22;667;48.796;9.480;2023-07-13T13:11:17;29.00;37.10
1347;DHT22;667;48.796;9.480;2023-07-13T13:13:44;29.00;37.10
1347;DHT22;667;48.796;9.480;2023-07-13T13:18:50;28.80;36.60
1347;DHT22;667;48.796;9.480;2023-07-13T13:21:17;28.70;37.20
1347;DHT22;667;48.796;9.480;2023-07-13T13:23:42;28.70;37.50
1347;DHT22;667;48.796;9.480;2023-07-13T13:26:11;28.60;37.20
1347;DHT22;667;48.796;9.480;2023-07-13T13:28:37;28.60;37.80
1347;DHT22;667;48.796;9.480;2023-07-13T13:31:03;28.60;37.80
1347;DHT22;667;48.796;9.480;2023-07-13T13:33:29;28.60;37.40
1347;DHT22;667;48.796;9.480;2023-07-13T13:35:55;28.50;37.10
1347;DHT22;667;48.796;9.480;2023-07-13T13:38:25;28.50;36.90
1347;DHT22;667;48.796;9.480;2023-07-13T13:40:51;28.40;36.80
1347;DHT22;667;48.796;9.480;2023-07-13T13:43:25;28.40;36.80
1347;DHT22;667;48.796;9.480;2023-07-13T13:45:53;28.40;37.60
1347;DHT22;667;48.796;9.480;2023-07-13T13:50:56;28.50;37.10
1347;DHT22;667;48.796;9.480;2023-07-13T13:53:22;28.50;36.90
1347;DHT22;667;48.796;9.480;2023-07-13T13:55:49;28.50;36.60
1347;DHT22;667;48.796;9.480;2023-07-13T13:58:15;28.50;36.70
1347;DHT22;667;48.796;9.480;2023-07-13T14:00:41;28.50;37.00
1347;DHT22;667;48.796;9.480;2023-07-13T14:03:28;28.60;36.90
1347;DHT22;667;48.796;9.480;2023-07-13T14:05:54;28.60;36.00
1347;DHT22;667;48.796;9.480;2023-07-13T14:08:22;28.70;35.90
1347;DHT22;667;48.796;9.480;2023-07-13T14:10:50;28.70;35.60
1347;DHT22;667;48.796;9.480;2023-07-13T14:13:21;28.70;36.00
1347;DHT22;667;48.796;9.480;2023-07-13T14:15:47;28.70;36.10
1347;DHT22;667;48.796;9.480;2023-07-13T14:18:13;28.70;35.70
1347;DHT22;667;48.796;9.480;2023-07-13T14:20:43;28.60;35.50
1347;DHT22;667;48.796;9.480;2023-07-13T14:23:09;28.50;35.70
1347;DHT22;667;48.796;9.480;2023-07-13T14:25:35;28.50;36.00
1347;DHT22;667;48.796;9.480;2023-07-13T14:28:16;28.50;36.10
1347;DHT22;667;48.796;9.480;2023-07-13T14:30:43;28.50;36.10
1347;DHT22;667;48.796;9.480;2023-07-13T14:33:10;28.50;36.10
1347;DHT22;667;48.796;9.480;2023-07-13T14:35:36;28.50;36.50
1347;DHT22;667;48.796;9.480;2023-07-13T14:38:03;28.50;36.20
1347;DHT22;667;48.796;9.480;2023-07-13T14:40:33;28.50;35.80
1347;DHT22;667;48.796;9.480;2023-07-13T14:42:59;28.50;35.50
1347;DHT22;667;48.796;9.480;2023-07-13T14:45:25;28.40;35.30
1347;DHT22;667;48.796;9.480;2023-07-13T14:47:51;28.30;35.40
1347;DHT22;667;48.796;9.480;2023-07-13T14:50:24;28.40;35.40
1347;DHT22;667;48.796;9.480;2023-07-13T14:52:50;28.40;35.60
1347;DHT22;667;48.796;9.480;2023-07-13T14:55:18;28.40;35.70
1347;DHT22;667;48.796;9.480;2023-07-13T14:57:45;28.50;35.50
1347;DHT22;667;48.796;9.480;2023-07-13T15:00:20;28.50;35.10
1347;DHT22;667;48.796;9.480;2023-07-13T15:02:55;28.50;35.70
1347;DHT22;667;48.796;9.480;2023-07-13T15:05:24;28.60;35.80
1347;DHT22;667;48.796;9.480;2023-07-13T15:07:52;28.60;36.10
1347;DHT22;667;48.796;9.480;2023-07-13T15:10:25;28.60;35.90
1347;DHT22;667;48.796;9.480;2023-07-13T15:12:52;28.60;35.60
1347;DHT22;667;48.796;9.480;2023-07-13T15:15:19;28.50;35.60
1347;DHT22;667;48.796;9.480;2023-07-13T15:17:46;28.50;35.50
1347;DHT22;667;48.796;9.480;2023-07-13T15:22:46;28.50;35.10
1347;DHT22;667;48.796;9.480;2023-07-13T15:25:23;28.40;34.60
1347;DHT22;667;48.796;9.480;2023-07-13T15:27:50;28.40;34.70
1347;DHT22;667;48.796;9.480;2023-07-13T15:30:16;28.40;35.60
1347;DHT22;667;48.796;9.480;2023-07-13T15:32:42;28.40;35.20
1347;DHT22;667;48.796;9.480;2023-07-13T15:35:16;28.20;35.00
1347;DHT22;667;48.796;9.480;2023-07-13T15:37:43;28.20;35.50
1347;DHT22;667;48.796;9.480;2023-07-13T15:40:10;28.10;35.70
1347;DHT22;667;48.796;9.480;2023-07-13T15:42:36;28.00;35.80
1347;DHT22;667;48.796;9.480;2023-07-13T15:45:04;28.00;36.00
1347;DHT22;667;48.796;9.480;2023-07-13T15:47:31;28.00;36.50
1347;DHT22;667;48.796;9.480;2023-07-13T15:49:57;28.00;36.70
1347;DHT22;667;48.796;9.480;2023-07-13T15:52:24;28.00;36.70
1347;DHT22;667;48.796;9.480;2023-07-13T15:54:50;28.00;37.00
1347;DHT22;667;48.796;9.480;2023-07-13T15:57:16;28.10;36.90
1347;DHT22;667;48.796;9.480;2023-07-13T15:59:42;28.10;37.10
1347;DHT22;667;48.796;9.480;2023-07-13T16:02:26;28.10;37.10
1347;DHT22;667;48.796;9.480;2023-07-13T16:04:52;28.10;36.40
1347;DHT22;667;48.796;9.480;2023-07-13T16:07:17;28.10;36.70
1347;DHT22;667;48.796;9.480;2023-07-13T16:09:45;28.00;36.90
1347;DHT22;667;48.796;9.480;2023-07-13T16:12:12;28.00;36.80
1347;DHT22;667;48.796;9.480;2023-07-13T16:14:39;27.90;36.40
1347;DHT22;667;48.796;9.480;2023-07-13T16:17:05;27.90;36.70
1347;DHT22;667;48.796;9.480;2023-07-13T16:19:31;27.90;36.80
1347;DHT22;667;48.796;9.480;2023-07-13T16:21:59;27.80;36.90
1347;DHT22;667;48.796;9.480;2023-07-13T16:24:26;27.80;36.80
1347;DHT22;667;48.796;9.480;2023-07-13T16:26:52;27.70;36.80
1347;DHT22;667;48.796;9.480;2023-07-13T16:29:30;27.70;37.00
1347;DHT22;667;48.796;9.480;2023-07-13T16:32:04;27.70;36.90
1347;DHT22;667;48.796;9.480;2023-07-13T16:34:34;27.60;37.00
1347;DHT22;667;48.796;9.480;2023-07-13T16:37:02;27.60;37.30
1347;DHT22;667;48.796;9.480;2023-07-13T16:39:28;27.50;37.30
1347;DHT22;667;48.796;9.480;2023-07-13T16:41:56;27.50;37.30
1347;DHT22;667;48.796;9.480;2023-07-13T16:44:24;27.50;37.40
1347;DHT22;667;48.796;9.480;2023-07-13T16:46:52;27.50;37.60
1347;DHT22;667;48.796;9.480;2023-07-13T16:49:30;27.50;37.80
1347;DHT22;667;48.796;9.480;2023-07-13T16:51:57;27.50;38.10
1347;DHT22;667;48.796;9.480;2023-07-13T16:54:36;27.50;38.30
1347;DHT22;667;48.796;9.480;2023-07-13T16:57:11;27.50;37.90
1347;DHT22;667;48.796;9.480;2023-07-13T16:59:37;27.50;37.70
1347;DHT22;667;48.796;9.480;2023-07-13T17:04:49;27.40;38.00
1347;DHT22;667;48.796;9.480;2023-07-13T17:07:15;27.50;38.10
1347;DHT22;667;48.796;9.480;2023-07-13T17:09:43;27.40;37.90
1347;DHT22;667;48.796;9.480;2023-07-13T17:12:11;27.40;37.80
1347;DHT22;667;48.796;9.480;2023-07-13T17:14:37;27.40;37.60
1347;DHT22;667;48.796;9.480;2023-07-13T17:17:09;27.40;37.70
1347;DHT22;667;48.796;9.480;2023-07-13T17:19:37;27.30;37.90
1347;DHT22;667;48.796;9.480;2023-07-13T17:22:03;27.30;37.90
1347;DHT22;667;48.796;9.480;2023-07-13T17:24:31;27.30;37.90
1347;DHT22;667;48.796;9.480;2023-07-13T17:26:58;27.30;37.90
1347;DHT22;667;48.796;9.480;2023-07-13T17:29:24;27.20;38.20
1347;DHT22;667;48.796;9.480;2023-07-13T17:31:49;27.20;38.40
1347;DHT22;667;48.796;9.480;2023-07-13T17:34:17;27.20;38.80
1347;DHT22;667;48.796;9.480;2023-07-13T17:39:01;27.20;38.80
1347;DHT22;667;48.796;9.480;2023-07-13T17:41:29;27.10;38.70
1347;DHT22;667;48.796;9.480;2023-07-13T17:43:55;27.10;38.40
1347;DHT22;667;48.796;9.480;2023-07-13T17:46:27;27.00;38.30
1347;DHT22;667;48.796;9.480;2023-07-13T17:48:54;27.00;38.40
1347;DHT22;667;48.796;9.480;2023-07-13T17:51:20;27.00;38.50
1347;DHT22;667;48.796;9.480;2023-07-13T17:53:48;26.90;38.50
1347;DHT22;667;48.796;9.480;2023-07-13T17:56:14;26.90;38.70
1347;DHT22;667;48.796;9.480;2023-07-13T17:58:41;26.90;38.90
1347;DHT22;667;48.796;9.480;2023-07-13T18:01:13;26.80;38.90
1347;DHT22;667;48.796;9.480;2023-07-13T18:03:41;26.80;38.80
1347;DHT22;667;48.796;9.480;2023-07-13T18:06:27;26.70;38.80
1347;DHT22;667;48.796;9.480;2023-07-13T18:08:57;26.70;39.10
1347;DHT22;667;48.796;9.480;2023-07-13T18:11:23;26.70;39.30
1347;DHT22;667;48.796;9.480;2023-07-13T18:13:50;26.60;39.40
1347;DHT22;667;48.796;9.480;2023-07-13T18:16:18;26.60;39.60
1347;DHT22;667;48.796;9.480;2023-07-13T18:18:45;26.60;39.90
1347;DHT22;667;48.796;9.480;2023-07-13T18:21:12;26.60;39.90
1347;DHT22;667;48.796;9.480;2023-07-13T18:23:41;26.50;40.10
1347;DHT22;667;48.796;9.480;2023-07-13T18:26:11;26.50;40.70
1347;DHT22;667;48.796;9.480;2023-07-13T18:28:37;26.40;41.00
1347;DHT22;667;48.796;9.480;2023-07-13T18:31:02;26.40;41.00
1347;DHT22;667;48.796;9.480;2023-07-13T18:33:32;26.40;41.70
1347;DHT22;667;48.796;9.480;2023-07-13T18:36:02;26.40;42.40
1347;DHT22;667;48.796;9.480;2023-07-13T18:38:29;26.40;42.70
1347;DHT22;667;48.796;9.480;2023-07-13T18:40:57;26.30;42.20
1347;DHT22;667;48.796;9.480;2023-07-13T18:43:24;26.30;42.30
1347;DHT22;667;48.796;9.480;2023-07-13T18:45:56;26.30;42.50
1347;DHT22;667;48.796;9.480;2023-07-13T18:48:26;26.20;41.60
1347;DHT22;667;48.796;9.480;2023-07-13T18:50:52;26.20;41.40
1347;DHT22;667;48.796;9.480;2023-07-13T18:53:19;26.10;41.70
1347;DHT22;667;48.796;9.480;2023-07-13T18:55:45;26.10;42.60
1347;DHT22;667;48.796;9.480;2023-07-13T18:58:12;26.10;43.50
1347;DHT22;667;48.796;9.480;2023-07-13T19:00:42;26.10;43.60
1347;DHT22;667;48.796;9.480;2023-07-13T19:03:19;26.10;43.60
1347;DHT22;667;48.796;9.480;2023-07-13T19:05:47;26.00;44.40
1347;DHT22;667;48.796;9.480;2023-07-13T19:08:18;26.00;44.60
1347;DHT22;667;48.796;9.480;2023-07-13T19:10:44;25.90;45.30
1347;DHT22;667;48.796;9.480;2023-07-13T19:13:15;25.90;45.80
1347;DHT22;667;48.796;9.480;2023-07-13T19:15:42;25.80;46.80
1347;DHT22;667;48.796;9.480;2023-07-13T19:18:19;25.80;47.70
1347;DHT22;667;48.796;9.480;2023-07-13T19:20:46;25.70;48.20
1347;DHT22;667;48.796;9.480;2023-07-13T19:23:32;25.60;48.70
1347;DHT22;667;48.796;9.480;2023-07-13T19:26:02;25.60;48.80
1347;DHT22;667;48.796;9.480;2023-07-13T19:28:40;25.40;49.00
1347;DHT22;667;48.796;9.480;2023-07-13T19:31:33;25.30;49.00
1347;DHT22;667;48.796;9.480;2023-07-13T19:36:32;25.20;48.80
1347;DHT22;667;48.796;9.480;2023-07-13T19:38:58;25.10;48.80
1347;DHT22;667;48.796;9.480;2023-07-13T19:41:24;25.00;49.00
1347;DHT22;667;48.796;9.480;2023-07-13T19:43:51;24.90;49.20
1347;DHT22;667;48.796;9.480;2023-07-13T19:46:28;24.90;49.30
1347;DHT22;667;48.796;9.480;2023-07-13T19:48:54;24.80;49.30
1347;DHT22;667;48.796;9.480;2023-07-13T19:51:21;24.80;49.10
1347;DHT22;667;48.796;9.480;2023-07-13T19:53:48;24.70;49.20
1347;DHT22;667;48.796;9.480;2023-07-13T19:56:15;24.60;49.50
1347;DHT22;667;48.796;9.480;2023-07-13T19:58:41;24.50;49.10
1347;DHT22;667;48.796;9.480;2023-07-13T20:01:07;24.40;49.10
1347;DHT22;667;48.796;9.480;2023-07-13T20:03:32;24.30;49.30
1347;DHT22;667;48.796;9.480;2023-07-13T20:05:58;24.30;49.60
1347;DHT22;667;48.796;9.480;2023-07-13T20:08:23;24.20;49.50
1347;DHT22;667;48.796;9.480;2023-07-13T20:10:51;24.20;49.70
1347;DHT22;667;48.796;9.480;2023-07-13T20:13:17;24.10;50.40
1347;DHT22;667;48.796;9.480;2023-07-13T20:15:46;24.00;50.10
1347;DHT22;667;48.796;9.480;2023-07-13T20:18:14;24.00;50.50
1347;DHT22;667;48.796;9.480;2023-07-13T20:20:42;24.00;50.70
1347;DHT22;667;48.796;9.480;2023-07-13T20:23:19;23.90;51.10
1347;DHT22;667;48.796;9.480;2023-07-13T20:25:48;23.90;50.30
1347;DHT22;667;48.796;9.480;2023-07-13T20:28:14;23.80;50.40
1347;DHT22;667;48.796;9.480;2023-07-13T20:30:43;23.80;51.00
1347;DHT22;667;48.796;9.480;2023-07-13T20:33:21;23.70;51.30
1347;DHT22;667;48.796;9.480;2023-07-13T20:35:48;23.70;51.40
1347;DHT22;667;48.796;9.480;2023-07-13T20:38:16;23.70;51.30
1347;DHT22;667;48.796;9.480;2023-07-13T20:40:43;23.70;51.20
1347;DHT22;667;48.796;9.480;2023-07-13T20:43:09;23.60;51.90
1347;DHT22;667;48.796;9.480;2023-07-13T20:45:36;23.60;51.40
1347;DHT22;667;48.796;9.480;2023-07-13T20:48:26;23.60;51.30
1347;DHT22;667;48.796;9.480;2023-07-13T20:50:55;23.60;51.20
1347;DHT22;667;48.796;9.480;2023-07-13T20:53:22;23.50;51.30
1347;DHT22;667;48.796;9.480;2023-07-13T20:55:48;23.50;51.40
1347;DHT22;667;48.796;9.480;2023-07-13T20:58:13;23.40;51.40
1347;DHT22;667;48.796;9.480;2023-07-13T21:00:41;23.40;51.60
1347;DHT22;667;48.796;9.480;2023-07-13T21:03:14;23.30;51.70
1347;DHT22;667;48.796;9.480;2023-07-13T21:05:41;23.30;52.00
1347;DHT22;667;48.796;9.480;2023-07-13T21:08:12;23.20;52.10
1347;DHT22;667;48.796;9.480;2023-07-13T21:10:38;23.10;52.10
1347;DHT22;667;48.796;9.480;2023-07-13T21:13:04;23.10;52.40
1347;DHT22;667;48.796;9.480;2023-07-13T21:15:33;23.10;52.30
1347;DHT22;667;48.796;9.480;2023-07-13T21:18:00;23.10;52.40
1347;DHT22;667;48.796;9.480;2023-07-13T21:20:35;23.00;52.40
1347;DHT22;667;48.796;9.480;2023-07-13T21:23:02;23.00;52.40
1347;DHT22;667;48.796;9.480;2023-07-13T21:25:31;22.90;52.00
1347;DHT22;667;48.796;9.480;2023-07-13T21:27:58;22.90;52.10
1347;DHT22;667;48.796;9.480;2023-07-13T21:30:44;22.90;52.40